Time;durP1;ratioP1;P1;durP2;ratioP2;P2;SDS_P1;SDS_P2;PMS_P1;PMS_P2;Temp;Humidity;BMP_temperature;BMP_pressure;BME280_temperature;BME280_humidity;BME280_pressure;Samples;Min_cycle;Max_cycle;Signal;HPM_P1;HPM_P2
2021/04/16 00:00:44;;;;;;;26.52;16.10;;;;;;;;;;4936179;29;20420;-50
2021/04/16 00:03:10;;;;;;;33.47;18.35;;;;;;;;;;4935864;29;20027;-50
2021/04/16 00:05:37;;;;;;;43.22;23.33;;;;;;;;;;4935968;29;20034;-50
2021/04/16 00:08:10;;;;;;;76.32;39.58;;;;;;;;;;4935950;29;20035;-50
2021/04/16 00:10:38;;;;;;;79.65;42.10;;;;;;;;;;4935858;29;20028;-52
2021/04/16 00:13:05;;;;;;;29.27;16.15;;;;;;;;;;4935713;29;20605;-52
2021/04/16 00:15:32;;;;;;;51.25;26.95;;;;;;;;;;4935877;29;20065;-51
2021/04/16 00:17:59;;;;;;;26.25;15.40;;;;;;;;;;4939325;29;20035;-49
2021/04/16 00:20:26;;;;;;;49.70;25.55;;;;;;;;;;4939267;29;20031;-50
2021/04/16 00:22:52;;;;;;;37.30;22.02;;;;;;;;;;4939387;29;20036;-50
2021/04/16 00:25:20;;;;;;;30.27;18.52;;;;;;;;;;4939313;29;20123;-51
2021/04/16 00:27:46;;;;;;;24.65;14.07;;;;;;;;;;4939195;29;20036;-49
2021/04/16 00:30:13;;;;;;;51.70;27.90;;;;;;;;;;4939437;29;20031;-51
2021/04/16 00:32:39;;;;;;;32.22;18.13;;;;;;;;;;4939289;29;20028;-50
2021/04/16 00:35:06;;;;;;;34.83;18.05;;;;;;;;;;4939194;29;20028;-49
2021/04/16 00:37:33;;;;;;;36.45;19.75;;;;;;;;;;4938849;29;20088;-50
2021/04/16 00:39:59;;;;;;;33.13;19.13;;;;;;;;;;4939137;29;20075;-50
2021/04/16 00:42:25;;;;;;;31.55;17.42;;;;;;;;;;4937810;29;20387;-51
2021/04/16 00:44:51;;;;;;;39.90;21.20;;;;;;;;;;4939170;29;20107;-47
2021/04/16 00:47:19;;;;;;;35.10;18.90;;;;;;;;;;4938902;29;20040;-50
2021/04/16 00:49:46;;;;;;;30.98;16.02;;;;;;;;;;4938773;29;20060;-50
2021/04/16 00:52:15;;;;;;;21.42;12.23;;;;;;;;;;4941342;29;20158;-51
2021/04/16 00:54:42;;;;;;;41.03;21.05;;;;;;;;;;4946995;29;20379;-51
2021/04/16 00:57:11;;;;;;;26.13;15.70;;;;;;;;;;4947967;29;20035;-52
2021/04/16 00:59:39;;;;;;;27.83;16.00;;;;;;;;;;4946753;29;20047;-49
2021/04/16 01:02:05;;;;;;;27.30;15.25;;;;;;;;;;4945995;29;20056;-49
2021/04/16 01:04:32;;;;;;;35.45;18.73;;;;;;;;;;4951693;29;20028;-51
2021/04/16 01:06:58;;;;;;;78.30;38.10;;;;;;;;;;4957630;29;20122;-49
2021/04/16 01:09:25;;;;;;;49.90;26.75;;;;;;;;;;4957956;28;20102;-52
2021/04/16 01:11:51;;;;;;;31.02;17.60;;;;;;;;;;4957881;28;20454;-51
2021/04/16 01:14:18;;;;;;;66.18;33.22;;;;;;;;;;4957652;29;20106;-51
2021/04/16 01:16:44;;;;;;;33.42;16.80;;;;;;;;;;4957778;29;20034;-51
2021/04/16 01:19:19;;;;;;;31.95;15.98;;;;;;;;;;4957640;28;20032;-50
2021/04/16 01:21:50;;;;;;;31.80;17.42;;;;;;;;;;4957603;29;20031;-51
2021/04/16 01:24:29;;;;;;;38.67;19.35;;;;;;;;;;4957544;29;20031;-49
2021/04/16 01:26:55;;;;;;;26.58;14.27;;;;;;;;;;4944098;29;20054;-50
2021/04/16 01:29:22;;;;;;;40.95;20.52;;;;;;;;;;4937396;29;20031;-50
2021/04/16 01:31:48;;;;;;;25.35;14.20;;;;;;;;;;4938299;29;20543;-49
2021/04/16 01:34:25;;;;;;;55.83;29.88;;;;;;;;;;4938177;29;20404;-50
2021/04/16 01:36:53;;;;;;;65.50;31.02;;;;;;;;;;4938229;29;20019;-51
2021/04/16 01:39:20;;;;;;;31.30;17.40;;;;;;;;;;4938269;29;20028;-50
2021/04/16 01:41:46;;;;;;;44.25;21.33;;;;;;;;;;4937955;29;20054;-52
2021/04/16 01:44:13;;;;;;;26.40;15.95;;;;;;;;;;4938163;29;20059;-50
2021/04/16 01:47:15;;;;;;;22.33;13.15;;;;;;;;;;4937943;29;20400;-50
2021/04/16 01:49:45;;;;;;;27.13;16.17;;;;;;;;;;4879074;29;20390;-50
2021/04/16 01:52:13;;;;;;;26.13;15.05;;;;;;;;;;4879328;29;20130;-51
2021/04/16 01:54:41;;;;;;;36.83;19.75;;;;;;;;;;4879244;29;20081;-50
2021/04/16 01:57:07;;;;;;;46.10;25.95;;;;;;;;;;4879217;29;20048;-50
2021/04/16 01:59:35;;;;;;;35.17;18.92;;;;;;;;;;4879258;29;20142;-51
2021/04/16 02:02:06;;;;;;;24.90;14.18;;;;;;;;;;4879199;29;20032;-51
2021/04/16 02:04:34;;;;;;;12.38;9.15;;;;;;;;;;4879193;29;20536;-51
2021/04/16 02:07:00;;;;;;;24.08;14.38;;;;;;;;;;4879154;29;20045;-50
2021/04/16 02:09:28;;;;;;;20.13;11.20;;;;;;;;;;4879208;29;20033;-50
2021/04/16 02:11:55;;;;;;;25.98;15.73;;;;;;;;;;4878928;29;20045;-50
2021/04/16 02:14:25;;;;;;;21.15;12.60;;;;;;;;;;4878915;29;20033;-50
2021/04/16 02:16:53;;;;;;;19.42;12.68;;;;;;;;;;4878919;29;20045;-50
2021/04/16 02:19:19;;;;;;;22.98;13.00;;;;;;;;;;4878776;29;20036;-50
2021/04/16 02:21:45;;;;;;;26.05;14.45;;;;;;;;;;4879134;29;20036;-50
2021/04/16 02:24:12;;;;;;;16.85;9.82;;;;;;;;;;4919675;29;20468;-50
2021/04/16 02:26:38;;;;;;;17.30;11.00;;;;;;;;;;4937212;29;20035;-50
2021/04/16 02:29:05;;;;;;;16.48;11.10;;;;;;;;;;4937196;29;20076;-51
2021/04/16 02:31:31;;;;;;;21.70;11.82;;;;;;;;;;4937176;29;20020;-49
2021/04/16 02:33:57;;;;;;;21.75;13.02;;;;;;;;;;4937513;29;20059;-49
2021/04/16 02:36:24;;;;;;;21.35;12.70;;;;;;;;;;4937138;29;20114;-49
2021/04/16 02:38:52;;;;;;;18.63;10.35;;;;;;;;;;4936821;29;20038;-50
2021/04/16 02:41:18;;;;;;;23.38;11.48;;;;;;;;;;4937032;29;20050;-50
2021/04/16 02:43:44;;;;;;;21.30;12.43;;;;;;;;;;4936804;29;20024;-50
2021/04/16 02:46:10;;;;;;;18.23;10.95;;;;;;;;;;4937090;29;20040;-50
2021/04/16 02:48:36;;;;;;;15.57;10.68;;;;;;;;;;4937118;29;20091;-51
2021/04/16 02:51:02;;;;;;;16.95;10.88;;;;;;;;;;4936471;29;20485;-49
2021/04/16 02:53:28;;;;;;;13.45;9.25;;;;;;;;;;4936897;29;20034;-50
2021/04/16 02:55:54;;;;;;;22.65;13.57;;;;;;;;;;4936837;29;20096;-50
2021/04/16 02:58:20;;;;;;;16.75;11.60;;;;;;;;;;4936679;29;20051;-51
2021/04/16 03:00:46;;;;;;;15.20;10.45;;;;;;;;;;4936740;29;20087;-50
2021/04/16 03:03:12;;;;;;;17.75;10.77;;;;;;;;;;4935452;29;20070;-49
2021/04/16 03:05:38;;;;;;;12.43;8.35;;;;;;;;;;4936787;29;20057;-50
2021/04/16 03:08:05;;;;;;;18.70;9.85;;;;;;;;;;4936554;29;20042;-50
2021/04/16 03:10:32;;;;;;;14.73;9.25;;;;;;;;;;4936688;29;20024;-50
2021/04/16 03:12:59;;;;;;;16.00;9.95;;;;;;;;;;4936388;29;20060;-52
2021/04/16 03:15:25;;;;;;;15.70;9.68;;;;;;;;;;4936573;29;20050;-50
2021/04/16 03:17:51;;;;;;;21.13;10.50;;;;;;;;;;4936519;29;20023;-49
2021/04/16 03:20:19;;;;;;;19.55;10.27;;;;;;;;;;4936347;29;20468;-51
2021/04/16 03:22:45;;;;;;;13.30;8.43;;;;;;;;;;4936687;29;20045;-51
2021/04/16 03:25:13;;;;;;;12.93;8.95;;;;;;;;;;4936427;29;20456;-51
2021/04/16 03:27:39;;;;;;;12.38;8.30;;;;;;;;;;4936130;29;20035;-51
2021/04/16 03:30:06;;;;;;;15.07;8.85;;;;;;;;;;4936966;29;20110;-50
2021/04/16 03:32:32;;;;;;;13.93;9.43;;;;;;;;;;4936677;29;20161;-50
2021/04/16 03:34:58;;;;;;;14.70;8.43;;;;;;;;;;4936403;29;20407;-50
2021/04/16 03:37:24;;;;;;;14.98;9.68;;;;;;;;;;4936356;29;20032;-50
2021/04/16 03:39:50;;;;;;;14.55;9.25;;;;;;;;;;4936213;29;20123;-49
2021/04/16 03:42:17;;;;;;;16.05;9.00;;;;;;;;;;4936156;29;20392;-49
2021/04/16 03:44:43;;;;;;;15.60;10.07;;;;;;;;;;4936093;29;20559;-50
2021/04/16 03:47:09;;;;;;;18.80;9.82;;;;;;;;;;4936327;29;20399;-50
2021/04/16 03:49:35;;;;;;;19.27;10.55;;;;;;;;;;4935980;29;20444;-50
2021/04/16 03:52:03;;;;;;;22.27;10.90;;;;;;;;;;4938353;29;20029;-49
2021/04/16 03:54:29;;;;;;;22.20;11.05;;;;;;;;;;4940183;29;20115;-50
2021/04/16 03:56:56;;;;;;;22.92;11.60;;;;;;;;;;4939996;29;20036;-51
2021/04/16 03:59:23;;;;;;;20.88;11.05;;;;;;;;;;4940182;29;20091;-51
2021/04/16 04:01:49;;;;;;;24.02;11.82;;;;;;;;;;4940358;29;20055;-50
2021/04/16 04:04:16;;;;;;;22.33;11.13;;;;;;;;;;4940142;29;20034;-49
2021/04/16 04:06:42;;;;;;;21.13;11.63;;;;;;;;;;4939988;29;20114;-50
2021/04/16 04:09:08;;;;;;;23.60;11.40;;;;;;;;;;4939847;29;20099;-52
2021/04/16 04:11:35;;;;;;;17.80;10.30;;;;;;;;;;4939603;29;20063;-52
2021/04/16 04:14:01;;;;;;;35.47;19.75;;;;;;;;;;4939519;29;20392;-50
2021/04/16 04:16:28;;;;;;;34.72;17.13;;;;;;;;;;4939835;29;20020;-49
2021/04/16 04:18:54;;;;;;;27.45;12.98;;;;;;;;;;4939500;29;20056;-51
2021/04/16 04:21:21;;;;;;;29.00;14.52;;;;;;;;;;4939615;29;20028;-50
2021/04/16 04:23:47;;;;;;;43.75;21.73;;;;;;;;;;4939473;29;20059;-48
2021/04/16 04:26:13;;;;;;;41.40;23.35;;;;;;;;;;4939441;29;20392;-50
2021/04/16 04:28:39;;;;;;;38.38;21.38;;;;;;;;;;4922447;29;20028;-50
2021/04/16 04:31:05;;;;;;;40.47;20.35;;;;;;;;;;4939289;29;20063;-50
2021/04/16 04:33:31;;;;;;;30.67;17.63;;;;;;;;;;4939405;29;20149;-50
2021/04/16 04:35:57;;;;;;;30.77;16.83;;;;;;;;;;4939310;29;20031;-48
2021/04/16 04:38:23;;;;;;;23.25;14.10;;;;;;;;;;4939337;29;20031;-50
2021/04/16 04:40:50;;;;;;;26.55;15.90;;;;;;;;;;4938968;29;20468;-49
2021/04/16 04:43:16;;;;;;;36.90;19.23;;;;;;;;;;4938940;29;20420;-51
2021/04/16 04:45:43;;;;;;;45.97;19.92;;;;;;;;;;4938926;29;20078;-51
2021/04/16 04:48:09;;;;;;;45.25;19.42;;;;;;;;;;4938953;29;20472;-50
2021/04/16 04:50:35;;;;;;;31.98;14.75;;;;;;;;;;4938844;29;20416;-51
2021/04/16 04:53:03;;;;;;;17.40;11.48;;;;;;;;;;4938923;29;20476;-48
2021/04/16 04:55:30;;;;;;;17.08;8.85;;;;;;;;;;4938823;29;20054;-49
2021/04/16 04:58:00;;;;;;;14.10;7.22;;;;;;;;;;4938868;29;20032;-50
2021/04/16 05:00:27;;;;;;;22.33;10.15;;;;;;;;;;4938826;29;20554;-52
2021/04/16 05:02:53;;;;;;;21.13;9.55;;;;;;;;;;4938782;29;20035;-53
2021/04/16 05:05:19;;;;;;;26.27;13.25;;;;;;;;;;4937201;29;20035;-50
2021/04/16 05:07:45;;;;;;;20.23;8.95;;;;;;;;;;4938743;29;20038;-48
2021/04/16 05:10:12;;;;;;;21.75;11.20;;;;;;;;;;4938861;29;20028;-48
2021/04/16 05:12:39;;;;;;;29.70;15.18;;;;;;;;;;4938492;29;20027;-51
2021/04/16 05:15:05;;;;;;;22.90;11.85;;;;;;;;;;4938831;29;20028;-50
2021/04/16 05:17:32;;;;;;;36.63;19.15;;;;;;;;;;4939334;29;20027;-50
2021/04/16 05:19:58;;;;;;;17.67;11.13;;;;;;;;;;4938450;29;20087;-49
2021/04/16 05:22:24;;;;;;;19.60;11.15;;;;;;;;;;4938602;29;20542;-49
2021/04/16 05:24:50;;;;;;;18.70;9.65;;;;;;;;;;4938516;29;20023;-49
2021/04/16 05:27:18;;;;;;;20.60;12.35;;;;;;;;;;4938443;29;20171;-50
2021/04/16 05:29:44;;;;;;;28.60;16.42;;;;;;;;;;4938409;29;20111;-50
2021/04/16 05:32:10;;;;;;;20.75;12.73;;;;;;;;;;4938349;29;20161;-49
2021/04/16 05:34:37;;;;;;;15.38;9.35;;;;;;;;;;4938206;29;20039;-49
2021/04/16 05:37:04;;;;;;;18.52;10.23;;;;;;;;;;4938386;29;20430;-48
2021/04/16 05:39:30;;;;;;;19.63;11.18;;;;;;;;;;4938212;29;20046;-49
2021/04/16 05:41:56;;;;;;;17.38;10.25;;;;;;;;;;4938180;29;20070;-52
2021/04/16 05:44:23;;;;;;;17.95;11.65;;;;;;;;;;4938126;29;20111;-52
2021/04/16 05:46:49;;;;;;;16.92;10.35;;;;;;;;;;4937986;29;20032;-52
2021/04/16 05:49:15;;;;;;;16.65;9.95;;;;;;;;;;4937820;29;20495;-52
2021/04/16 05:51:41;;;;;;;17.10;9.23;;;;;;;;;;4938034;29;20030;-52
2021/04/16 05:54:07;;;;;;;18.83;12.10;;;;;;;;;;4938085;29;20063;-52
2021/04/16 05:56:34;;;;;;;18.92;12.60;;;;;;;;;;4937999;29;20031;-50
2021/04/16 05:59:00;;;;;;;25.73;17.63;;;;;;;;;;4937762;29;20032;-50
2021/04/16 06:01:26;;;;;;;25.15;15.38;;;;;;;;;;4938120;29;20042;-50
2021/04/16 06:03:52;;;;;;;18.85;13.20;;;;;;;;;;4937891;29;20024;-49
2021/04/16 06:06:19;;;;;;;14.68;9.73;;;;;;;;;;4937621;29;20036;-51
2021/04/16 06:08:45;;;;;;;16.48;11.13;;;;;;;;;;4937669;29;20039;-49
2021/04/16 06:11:12;;;;;;;20.52;14.45;;;;;;;;;;4937636;29;20074;-51
2021/04/16 06:13:38;;;;;;;19.67;11.82;;;;;;;;;;4936989;29;20036;-51
2021/04/16 06:16:05;;;;;;;20.80;12.88;;;;;;;;;;4937487;29;20035;-51
2021/04/16 06:18:31;;;;;;;25.15;16.23;;;;;;;;;;4937682;29;20020;-52
2021/04/16 06:20:58;;;;;;;19.50;13.13;;;;;;;;;;4937304;29;20036;-50
2021/04/16 06:23:24;;;;;;;19.60;12.93;;;;;;;;;;4937370;29;20031;-50
2021/04/16 06:25:50;;;;;;;19.67;14.82;;;;;;;;;;4937344;29;20389;-48
2021/04/16 06:28:16;;;;;;;19.30;12.95;;;;;;;;;;4937054;29;20032;-49
2021/04/16 06:30:44;;;;;;;20.45;14.05;;;;;;;;;;4937256;29;20066;-48
2021/04/16 06:33:13;;;;;;;19.30;12.60;;;;;;;;;;4937224;29;20362;-48
2021/04/16 06:35:39;;;;;;;20.38;14.63;;;;;;;;;;4937083;29;20035;-48
2021/04/16 06:38:05;;;;;;;18.42;12.55;;;;;;;;;;4937165;29;20056;-49
2021/04/16 06:40:33;;;;;;;12.75;10.13;;;;;;;;;;4937163;29;20039;-48
2021/04/16 06:43:00;;;;;;;16.10;10.70;;;;;;;;;;4936991;29;20047;-50
2021/04/16 06:45:28;;;;;;;17.65;11.15;;;;;;;;;;4937202;29;20023;-49
2021/04/16 06:48:01;;;;;;;12.98;11.07;;;;;;;;;;4936889;29;20087;-49
2021/04/16 06:50:30;;;;;;;14.05;10.20;;;;;;;;;;4936666;29;20408;-49
2021/04/16 06:53:00;;;;;;;12.82;10.10;;;;;;;;;;4936866;29;20078;-49
2021/04/16 06:55:30;;;;;;;13.93;9.02;;;;;;;;;;4936789;29;20377;-49
2021/04/16 06:58:03;;;;;;;10.23;8.88;;;;;;;;;;4936743;29;20039;-50
2021/04/16 07:00:48;;;;;;;15.55;9.57;;;;;;;;;;4936653;29;20063;-48
2021/04/16 07:03:25;;;;;;;33.35;19.67;;;;;;;;;;4936823;29;20034;-47
2021/04/16 07:05:54;;;;;;;40.05;22.13;;;;;;;;;;4936724;29;20020;-50
2021/04/16 07:08:28;;;;;;;26.85;15.32;;;;;;;;;;4936527;29;20094;-49
2021/04/16 07:10:56;;;;;;;35.00;23.38;;;;;;;;;;4936557;29;20024;-48
2021/04/16 07:13:37;;;;;;;25.83;16.50;;;;;;;;;;4938936;29;20048;-51
2021/04/16 07:16:05;;;;;;;42.42;28.92;;;;;;;;;;4944607;29;20027;-49
2021/04/16 07:18:34;;;;;;;44.95;27.38;;;;;;;;;;4946025;29;20507;-48
2021/04/16 07:21:00;;;;;;;38.58;26.13;;;;;;;;;;4945971;28;20464;-48
2021/04/16 07:23:27;;;;;;;43.72;29.98;;;;;;;;;;4944285;28;20106;-49
2021/04/16 07:26:22;;;;;;;57.17;38.30;;;;;;;;;;4949087;28;20099;-48
2021/04/16 07:28:50;;;;;;;72.18;46.70;;;;;;;;;;4946771;28;20078;-50
2021/04/16 07:31:26;;;;;;;89.68;54.70;;;;;;;;;;4955256;28;20034;-49
2021/04/16 07:33:53;;;;;;;92.70;56.45;;;;;;;;;;4955243;29;20027;-48
2021/04/16 07:36:25;;;;;;;53.00;33.72;;;;;;;;;;4955241;28;20510;-49
2021/04/16 07:39:01;;;;;;;64.32;39.78;;;;;;;;;;4955365;29;20384;-47
2021/04/16 07:41:28;;;;;;;66.97;40.35;;;;;;;;;;4955338;29;20047;-49
2021/04/16 07:43:56;;;;;;;94.15;56.35;;;;;;;;;;4955094;29;20050;-47
2021/04/16 07:46:24;;;;;;;87.22;52.90;;;;;;;;;;4955527;29;20114;-49
2021/04/16 07:48:50;;;;;;;62.42;38.35;;;;;;;;;;4954915;28;20064;-49
2021/04/16 07:51:27;;;;;;;49.03;31.05;;;;;;;;;;4955049;29;20079;-47
2021/04/16 07:53:55;;;;;;;47.20;27.88;;;;;;;;;;4954996;28;20368;-48
2021/04/16 07:56:23;;;;;;;33.50;22.23;;;;;;;;;;4951731;29;20015;-48
2021/04/16 07:59:02;;;;;;;71.82;46.50;;;;;;;;;;4944913;29;20082;-47
2021/04/16 08:01:29;;;;;;;71.95;39.72;;;;;;;;;;4946133;29;20391;-48
2021/04/16 08:04:15;;;;;;;84.10;47.28;;;;;;;;;;4938381;29;20032;-47
2021/04/16 08:06:43;;;;;;;67.93;30.70;;;;;;;;;;4925900;29;20459;-50
2021/04/16 08:09:26;;;;;;;43.03;20.67;;;;;;;;;;4935751;29;20079;-47
2021/04/16 08:11:58;;;;;;;33.88;16.33;;;;;;;;;;4936035;29;20028;-46
2021/04/16 08:14:26;;;;;;;25.25;11.18;;;;;;;;;;4935773;29;20028;-50
2021/04/16 08:17:02;;;;;;;32.65;14.73;;;;;;;;;;4935753;29;20027;-47
2021/04/16 08:19:28;;;;;;;33.72;16.38;;;;;;;;;;4935598;29;20035;-47
2021/04/16 08:21:58;;;;;;;23.83;12.73;;;;;;;;;;4935738;29;20031;-49
2021/04/16 08:24:48;;;;;;;25.45;14.43;;;;;;;;;;4935971;29;20031;-47
2021/04/16 08:27:36;;;;;;;24.15;11.30;;;;;;;;;;4935944;29;20123;-48
2021/04/16 08:30:20;;;;;;;24.95;12.50;;;;;;;;;;4935613;29;20036;-48
2021/04/16 08:32:54;;;;;;;19.30;8.15;;;;;;;;;;4935650;29;20477;-47
2021/04/16 08:35:24;;;;;;;14.15;10.57;;;;;;;;;;4935710;29;20161;-45
2021/04/16 08:37:57;;;;;;;14.88;10.88;;;;;;;;;;4937297;29;20477;-46
2021/04/16 08:40:27;;;;;;;10.18;8.02;;;;;;;;;;4939295;29;20031;-47
2021/04/16 08:42:55;;;;;;;18.58;9.60;;;;;;;;;;4939029;29;20079;-49
2021/04/16 08:45:22;;;;;;;10.55;8.05;;;;;;;;;;4938894;29;20034;-50
2021/04/16 08:47:53;;;;;;;19.13;9.63;;;;;;;;;;4939167;29;20066;-50
2021/04/16 08:50:24;;;;;;;10.52;8.55;;;;;;;;;;4938786;29;20476;-48
2021/04/16 08:52:53;;;;;;;17.05;8.15;;;;;;;;;;4939046;29;20027;-47
2021/04/16 08:55:24;;;;;;;11.32;8.40;;;;;;;;;;4939230;29;20086;-46
2021/04/16 08:57:55;;;;;;;10.43;7.13;;;;;;;;;;4938978;29;20024;-48
2021/04/16 09:00:30;;;;;;;11.82;8.88;;;;;;;;;;4938914;29;20059;-48
2021/04/16 09:02:58;;;;;;;13.65;8.70;;;;;;;;;;4938831;29;20036;-47
2021/04/16 09:05:25;;;;;;;18.85;10.90;;;;;;;;;;4938726;29;20031;-49
2021/04/16 09:07:59;;;;;;;76.05;51.17;;;;;;;;;;4939119;29;20424;-47
2021/04/16 09:10:25;;;;;;;24.45;15.73;;;;;;;;;;4938647;29;20034;-46
2021/04/16 09:12:53;;;;;;;93.25;48.30;;;;;;;;;;4938555;29;20031;-49
2021/04/16 09:15:19;;;;;;;20.02;11.95;;;;;;;;;;4938365;29;20475;-46
2021/04/16 09:17:52;;;;;;;103.03;65.40;;;;;;;;;;4938529;29;20061;-50
2021/04/16 09:20:18;;;;;;;41.35;28.35;;;;;;;;;;4938693;29;20464;-50
2021/04/16 09:22:45;;;;;;;36.80;21.80;;;;;;;;;;4938171;29;20530;-50
2021/04/16 09:25:30;;;;;;;122.00;52.95;;;;;;;;;;4938946;29;20028;-49
2021/04/16 09:28:16;;;;;;;66.55;35.85;;;;;;;;;;4938214;29;20095;-51
2021/04/16 09:30:42;;;;;;;154.45;88.55;;;;;;;;;;4938300;29;20031;-50
2021/04/16 09:33:17;;;;;;;58.63;30.38;;;;;;;;;;4938104;29;20511;-49
2021/04/16 09:35:48;;;;;;;46.80;25.25;;;;;;;;;;4938288;29;20469;-48
2021/04/16 09:38:26;;;;;;;49.80;27.90;;;;;;;;;;4938170;29;20023;-50
2021/04/16 09:41:11;;;;;;;50.78;31.05;;;;;;;;;;4938153;29;20027;-47
2021/04/16 09:43:38;;;;;;;68.20;39.80;;;;;;;;;;4937879;29;20039;-47
2021/04/16 09:46:22;;;;;;;105.57;33.88;;;;;;;;;;4938228;29;20028;-45
2021/04/16 09:48:50;;;;;;;87.70;49.78;;;;;;;;;;4937050;29;20087;-47
2021/04/16 09:51:22;;;;;;;20.08;14.77;;;;;;;;;;4937807;29;20408;-47
2021/04/16 09:54:06;;;;;;;31.80;17.83;;;;;;;;;;4938022;29;20050;-46
2021/04/16 09:56:32;;;;;;;21.02;13.82;;;;;;;;;;4938217;29;20086;-47
2021/04/16 09:59:00;;;;;;;18.23;9.38;;;;;;;;;;4937821;29;20115;-47
2021/04/16 10:01:26;;;;;;;19.13;10.27;;;;;;;;;;4938061;29;20365;-46
2021/04/16 10:04:00;;;;;;;10.57;7.75;;;;;;;;;;4937805;29;20107;-44
2021/04/16 10:06:29;;;;;;;16.80;7.22;;;;;;;;;;4937629;29;20107;-44
2021/04/16 10:09:14;;;;;;;15.10;8.18;;;;;;;;;;4937612;29;20392;-48
2021/04/16 10:11:46;;;;;;;19.88;13.75;;;;;;;;;;4937672;29;20032;-50
2021/04/16 10:14:14;;;;;;;30.80;20.08;;;;;;;;;;4937476;29;20042;-50
2021/04/16 10:16:42;;;;;;;27.17;15.98;;;;;;;;;;4937366;29;20030;-46
2021/04/16 10:19:19;;;;;;;28.35;16.73;;;;;;;;;;4937521;29;20042;-47
2021/04/16 10:21:46;;;;;;;42.78;23.60;;;;;;;;;;4937369;29;20023;-49
2021/04/16 10:28:27;;;;;;;23.67;15.32;;;;;;;;;;4937435;29;20179;-46
2021/04/16 12:39:22;;;;;;;91.75;58.28;;;;;;;;;;4942571;29;20058;-49
2021/04/16 12:41:54;;;;;;;58.05;37.58;;;;;;;;;;4948530;29;20042;-50
2021/04/16 12:44:20;;;;;;;;;;;;;;;;;;4947521;29;20480;-47
2021/04/16 12:46:48;;;;;;;32.85;22.33;;;;;;;;;;4945695;29;19957;-50
2021/04/16 12:49:14;;;;;;;35.97;23.35;;;;;;;;;;4939002;29;20423;-47
2021/04/16 12:51:40;;;;;;;37.38;24.33;;;;;;;;;;4938925;29;20016;-47
2021/04/16 12:54:06;;;;;;;18.95;13.73;;;;;;;;;;4941994;29;20043;-51
2021/04/16 12:56:42;;;;;;;57.33;30.80;;;;;;;;;;4946723;29;20383;-47
2021/04/16 12:59:12;;;;;;;82.85;48.67;;;;;;;;;;4955205;28;20089;-51
2021/04/16 13:01:39;;;;;;;110.70;63.05;;;;;;;;;;4957833;29;20057;-52
2021/04/16 13:04:05;;;;;;;46.30;28.27;;;;;;;;;;4957687;29;20121;-51
2021/04/16 13:06:39;;;;;;;58.92;36.15;;;;;;;;;;4957876;29;20027;-53
2021/04/16 13:09:08;;;;;;;91.15;50.72;;;;;;;;;;4957895;29;20065;-51
2021/04/16 13:11:34;;;;;;;89.43;53.53;;;;;;;;;;4957747;29;20122;-50
2021/04/16 13:14:00;;;;;;;35.13;23.17;;;;;;;;;;4955995;28;20036;-48
2021/04/16 13:16:27;;;;;;;56.28;29.77;;;;;;;;;;4957544;29;20023;-52
2021/04/16 13:18:55;;;;;;;60.90;35.03;;;;;;;;;;4957537;29;20090;-50
2021/04/16 13:21:30;;;;;;;96.55;49.55;;;;;;;;;;4957700;29;20061;-51
2021/04/16 13:23:56;;;;;;;58.00;32.40;;;;;;;;;;4956194;28;20038;-47
2021/04/16 13:26:25;;;;;;;106.40;62.60;;;;;;;;;;4957382;29;20023;-51
2021/04/16 13:28:52;;;;;;;67.28;37.60;;;;;;;;;;4957299;29;20027;-55
2021/04/16 13:31:18;;;;;;;75.22;41.22;;;;;;;;;;4957211;29;20070;-51
2021/04/16 13:33:45;;;;;;;50.28;28.60;;;;;;;;;;4957252;29;20027;-52
2021/04/16 13:36:18;;;;;;;48.97;26.08;;;;;;;;;;4957323;28;20471;-52
2021/04/16 13:38:45;;;;;;;65.00;36.15;;;;;;;;;;4957284;29;20530;-51
2021/04/16 13:41:11;;;;;;;51.70;28.90;;;;;;;;;;4948230;29;20031;-51
2021/04/16 13:43:38;;;;;;;25.25;15.15;;;;;;;;;;4946348;29;20027;-49
2021/04/16 13:46:05;;;;;;;36.88;17.85;;;;;;;;;;4948176;29;20361;-51
2021/04/16 13:48:31;;;;;;;26.27;14.98;;;;;;;;;;4946797;28;20082;-50
2021/04/16 13:50:57;;;;;;;24.77;13.73;;;;;;;;;;4947615;28;20516;-50
2021/04/16 13:53:23;;;;;;;74.70;41.92;;;;;;;;;;4939922;29;20495;-53
2021/04/16 13:55:50;;;;;;;18.83;11.95;;;;;;;;;;4956697;29;20027;-53
2021/04/16 13:58:16;;;;;;;56.15;29.40;;;;;;;;;;4956774;29;20110;-53
2021/04/16 14:00:46;;;;;;;48.88;29.58;;;;;;;;;;4956529;29;20019;-51
2021/04/16 14:03:29;;;;;;;23.02;14.45;;;;;;;;;;4956849;29;20047;-53
2021/04/16 14:05:57;;;;;;;24.80;16.05;;;;;;;;;;4956703;29;20021;-52
2021/04/16 14:08:26;;;;;;;47.00;25.45;;;;;;;;;;4956578;28;20035;-48
2021/04/16 14:10:52;;;;;;;43.45;24.38;;;;;;;;;;4956829;29;20514;-49
2021/04/16 14:13:19;;;;;;;46.03;19.17;;;;;;;;;;4956582;29;20046;-49
2021/04/16 14:15:45;;;;;;;43.97;20.33;;;;;;;;;;4956402;29;20498;-50
2021/04/16 14:18:17;;;;;;;44.63;19.88;;;;;;;;;;4956544;29;20042;-51
2021/04/16 14:20:43;;;;;;;31.20;16.17;;;;;;;;;;4956667;29;20086;-55
2021/04/16 14:23:12;;;;;;;49.70;18.55;;;;;;;;;;4956571;28;20027;-52
2021/04/16 14:25:39;;;;;;;62.50;27.42;;;;;;;;;;4956365;28;20054;-49
2021/04/16 14:28:08;;;;;;;27.77;14.93;;;;;;;;;;4956324;29;20031;-53
2021/04/16 14:30:35;;;;;;;25.75;13.20;;;;;;;;;;4956073;29;20467;-50
2021/04/16 14:33:05;;;;;;;35.58;15.32;;;;;;;;;;4956240;29;20064;-52
2021/04/16 14:35:32;;;;;;;40.35;18.77;;;;;;;;;;4955487;28;20495;-51
2021/04/16 14:38:02;;;;;;;36.92;15.02;;;;;;;;;;4956083;29;20519;-49
2021/04/16 14:40:28;;;;;;;64.15;29.52;;;;;;;;;;4956297;28;20042;-51
2021/04/16 14:42:54;;;;;;;36.70;15.93;;;;;;;;;;4956420;29;20030;-50
2021/04/16 14:45:25;;;;;;;40.95;20.45;;;;;;;;;;4955887;29;20119;-50
2021/04/16 14:47:52;;;;;;;85.35;38.25;;;;;;;;;;4955721;29;20043;-47
2021/04/16 14:50:18;;;;;;;48.47;28.50;;;;;;;;;;4955483;28;20074;-49
2021/04/16 14:52:44;;;;;;;132.40;82.45;;;;;;;;;;4956210;28;20065;-48
2021/04/16 14:55:16;;;;;;;30.75;18.90;;;;;;;;;;4955721;29;20530;-49
2021/04/16 14:57:43;;;;;;;21.30;12.27;;;;;;;;;;4955651;29;20102;-49
2021/04/16 15:00:10;;;;;;;17.50;10.77;;;;;;;;;;4955536;29;20031;-51
2021/04/16 15:02:37;;;;;;;21.65;12.07;;;;;;;;;;4955625;29;20090;-47
2021/04/16 15:05:03;;;;;;;34.20;21.73;;;;;;;;;;4955630;29;20035;-49
2021/04/16 15:07:30;;;;;;;375.13;251.98;;;;;;;;;;4955539;29;20071;-47
2021/04/16 15:10:02;;;;;;;59.55;30.48;;;;;;;;;;4955546;29;20031;-49
2021/04/16 15:12:30;;;;;;;19.48;11.43;;;;;;;;;;4955621;29;20031;-48
2021/04/16 15:15:00;;;;;;;15.15;9.32;;;;;;;;;;4955335;29;20057;-50
2021/04/16 15:17:26;;;;;;;19.00;8.85;;;;;;;;;;4955571;28;20023;-50
2021/04/16 15:19:53;;;;;;;22.92;13.95;;;;;;;;;;4955094;28;20035;-51
2021/04/16 15:22:22;;;;;;;31.80;20.50;;;;;;;;;;4955604;28;20081;-51
2021/04/16 15:24:49;;;;;;;63.50;39.15;;;;;;;;;;4955174;28;20037;-49
2021/04/16 15:27:17;;;;;;;63.05;32.40;;;;;;;;;;4955438;29;20027;-51
2021/04/16 15:29:45;;;;;;;31.40;18.65;;;;;;;;;;4955286;29;20149;-49
2021/04/16 15:32:13;;;;;;;61.83;35.13;;;;;;;;;;4955765;29;20050;-51
2021/04/16 15:47:57;;;;;;;26.63;16.35;;;;;;;;;;4954479;28;20035;-58
2021/04/16 15:50:26;;;;;;;22.27;14.25;;;;;;;;;;4954953;28;20074;-55
2021/04/16 15:52:54;;;;;;;28.80;17.35;;;;;;;;;;4954898;28;20062;-54
2021/04/16 15:55:20;;;;;;;37.83;25.10;;;;;;;;;;4955144;28;20052;-58
2021/04/16 15:57:48;;;;;;;50.22;28.80;;;;;;;;;;4955162;28;20026;-56
2021/04/16 16:00:39;;;;;;;75.65;42.55;;;;;;;;;;4954923;29;20027;-54
2021/04/16 16:03:06;;;;;;;35.63;20.95;;;;;;;;;;4955001;28;20026;-56
2021/04/16 16:05:32;;;;;;;38.92;22.15;;;;;;;;;;4952075;28;20027;-51
2021/04/16 16:07:59;;;;;;;29.17;17.23;;;;;;;;;;4934066;28;20047;-54
2021/04/16 16:10:32;;;;;;;34.13;17.17;;;;;;;;;;4917704;28;20043;-52
2021/04/16 16:12:59;;;;;;;26.95;15.48;;;;;;;;;;4933222;28;20323;-52
2021/04/16 16:15:45;;;;;;;41.97;22.00;;;;;;;;;;4932422;28;20035;-50
2021/04/16 16:18:15;;;;;;;28.10;17.67;;;;;;;;;;4933391;28;20043;-50
2021/04/16 16:20:42;;;;;;;24.33;14.57;;;;;;;;;;4932635;28;20106;-50
2021/04/16 16:23:09;;;;;;;32.38;20.05;;;;;;;;;;4933193;28;20534;-50
2021/04/16 16:25:37;;;;;;;30.08;14.27;;;;;;;;;;4933049;28;20023;-50
2021/04/16 16:28:06;;;;;;;30.00;18.20;;;;;;;;;;4933078;28;20046;-51
2021/04/16 16:30:34;;;;;;;29.90;17.70;;;;;;;;;;4932435;28;20024;-53
2021/04/16 16:33:01;;;;;;;29.63;17.42;;;;;;;;;;4933306;28;20030;-52
2021/04/16 16:35:31;;;;;;;42.80;21.40;;;;;;;;;;4932413;28;20562;-54
2021/04/16 16:37:58;;;;;;;32.92;15.70;;;;;;;;;;4933187;28;20023;-52
2021/04/16 16:40:24;;;;;;;30.20;15.85;;;;;;;;;;5033014;23;20063;-54
2021/04/16 16:42:51;;;;;;;26.27;14.40;;;;;;;;;;4918282;29;20150;-52
2021/04/16 16:45:19;;;;;;;35.45;19.60;;;;;;;;;;4917874;29;20027;-53
2021/04/16 16:47:46;;;;;;;38.47;22.75;;;;;;;;;;4917857;29;20027;-52
2021/04/16 16:50:13;;;;;;;39.25;24.33;;;;;;;;;;4909326;29;20035;-53
2021/04/16 16:52:39;;;;;;;48.03;29.20;;;;;;;;;;4917761;29;20027;-51